createdAt,value
2023-04-27T00:07:22.479Z,98722.75
2023-04-27T00:17:26.260Z,98723.64
2023-04-27T00:27:30.285Z,98726.00
2023-04-27T00:37:33.956Z,98723.33
2023-04-27T00:47:38.026Z,98728.73
2023-04-27T00:57:41.672Z,98731.30
2023-04-27T01:07:45.670Z,98733.92
2023-04-27T01:17:49.668Z,98729.86
2023-04-27T01:27:53.841Z,98736.35
2023-04-27T01:37:57.560Z,98740.71
2023-04-27T01:48:01.526Z,98743.76
2023-04-27T01:58:05.684Z,98743.44
2023-04-27T02:08:09.561Z,98746.69
2023-04-27T02:18:13.611Z,98742.16
2023-04-27T02:28:17.357Z,98743.94
2023-04-27T02:38:22.365Z,98742.72
2023-04-27T02:48:26.332Z,98742.45
2023-04-27T02:58:30.479Z,98743.67
2023-04-27T03:08:34.468Z,98750.95
2023-04-27T03:18:38.780Z,98756.20
2023-04-27T03:28:42.831Z,98765.83
2023-04-27T03:38:46.554Z,98775.71
2023-04-27T03:48:50.274Z,98772.48
2023-04-27T03:58:54.268Z,98783.46
2023-04-27T04:08:58.351Z,98789.06
2023-04-27T04:19:02.027Z,98792.30
2023-04-27T04:29:06.210Z,98794.88
2023-04-27T04:39:09.902Z,98796.98
2023-04-27T04:49:13.812Z,98807.46
2023-04-27T04:59:17.688Z,98809.34
2023-04-27T05:09:21.429Z,98812.29
2023-04-27T05:19:25.011Z,98818.19
2023-04-27T05:29:28.833Z,98817.86
2023-04-27T05:39:32.782Z,98826.09
2023-04-27T05:49:37.031Z,98828.92
2023-04-27T05:59:41.131Z,98834.20
2023-04-27T06:09:45.380Z,98839.20
2023-04-27T06:19:49.599Z,98841.77
2023-04-27T06:29:53.200Z,98848.98
2023-04-27T06:39:57.226Z,98850.82
2023-04-27T06:50:01.082Z,98856.30
2023-04-27T07:00:06.788Z,98857.14
2023-04-27T07:10:09.683Z,98851.66
2023-04-27T07:20:13.782Z,98855.20
2023-04-27T07:30:17.845Z,98857.99
2023-04-27T07:40:21.977Z,98860.30
2023-04-27T07:50:25.540Z,98860.02
2023-04-27T08:00:29.655Z,98860.35
2023-04-27T08:10:33.576Z,98868.21
2023-04-27T08:20:37.400Z,98861.04
2023-04-27T08:30:42.981Z,98859.92
2023-04-27T08:40:46.871Z,98857.89
2023-04-27T08:50:52.977Z,98871.54
2023-04-27T09:00:56.807Z,98865.10
2023-04-27T09:11:00.885Z,98871.52
2023-04-27T09:21:06.343Z,98874.61
2023-04-27T09:31:11.993Z,98867.09
2023-04-27T09:41:16.976Z,98868.54
2023-04-27T09:51:20.948Z,98869.63
2023-04-27T10:01:25.033Z,98872.15
2023-04-27T10:11:38.456Z,98874.29
2023-04-27T10:21:51.805Z,98874.85
2023-04-27T10:31:56.355Z,98873.40
2023-04-27T10:42:00.637Z,98877.16
2023-04-27T10:52:04.617Z,98877.02
2023-04-27T11:02:08.448Z,98877.20
2023-04-27T11:12:13.894Z,98880.38
2023-04-27T11:22:18.082Z,98886.92
2023-04-27T11:32:23.364Z,98892.62
2023-04-27T11:42:29.011Z,98900.56
2023-04-27T11:52:35.442Z,98899.33
2023-04-27T12:02:39.473Z,98901.69
2023-04-27T12:12:44.063Z,98897.27
2023-04-27T12:22:47.944Z,98894.97
2023-04-27T12:32:51.760Z,98893.73
2023-04-27T12:42:55.079Z,98898.86
2023-04-27T12:52:59.484Z,98906.30
2023-04-27T13:03:03.514Z,98906.90
2023-04-27T13:13:07.758Z,98911.90
2023-04-27T13:23:12.492Z,98918.84
2023-04-27T13:33:23.039Z,98914.96
2023-04-27T13:43:27.296Z,98908.41
2023-04-27T13:53:31.120Z,98908.99
2023-04-27T14:03:35.144Z,98907.56
2023-04-27T14:13:39.549Z,98911.45
2023-04-27T14:23:54.615Z,98912.41
2023-04-27T15:35:37.110Z,98953.88
2023-04-27T15:45:40.798Z,98952.90
2023-04-27T15:55:45.280Z,98952.33
2023-04-27T16:05:49.446Z,98954.12
2023-04-27T16:15:53.034Z,98959.77
2023-04-27T16:26:00.658Z,98960.23
2023-04-27T16:36:04.910Z,98964.86
2023-04-27T16:46:10.701Z,98965.30
2023-04-27T16:56:15.610Z,98966.30
2023-04-27T17:06:22.680Z,98968.42
2023-04-27T17:16:26.444Z,98973.75
2023-04-27T17:26:32.222Z,98981.52
2023-04-27T17:36:40.180Z,98982.88
2023-04-27T17:46:45.173Z,98986.14
2023-04-27T17:56:49.553Z,98991.38
2023-04-27T18:06:53.657Z,98997.30
2023-04-27T18:16:57.561Z,99000.19
2023-04-27T18:27:01.254Z,99010.46
2023-04-27T18:37:04.860Z,99019.04
2023-04-27T18:47:08.930Z,99030.61
2023-04-27T18:57:12.591Z,99036.77
2023-04-27T19:07:16.761Z,99034.13
2023-04-27T19:17:20.441Z,99037.30
2023-04-27T19:27:24.287Z,99042.56
2023-04-27T19:37:27.137Z,99052.52
2023-04-27T19:47:34.673Z,99053.89
2023-04-27T19:57:38.432Z,99049.88
2023-04-27T20:07:42.205Z,99054.50
2023-04-27T20:17:45.803Z,99056.52
2023-04-27T20:27:53.621Z,99055.83
2023-04-27T20:37:57.465Z,99057.56
2023-04-27T20:48:01.068Z,99057.23
2023-04-27T20:58:04.858Z,99065.10
2023-04-27T21:08:08.609Z,99069.66
2023-04-27T21:18:28.965Z,99070.27
2023-04-27T21:28:34.235Z,99073.31
2023-04-27T21:38:37.974Z,99068.48
2023-04-27T21:48:42.084Z,99066.18
2023-04-27T21:58:45.865Z,99070.93
2023-04-27T22:08:53.905Z,99066.48
2023-04-27T22:18:57.452Z,99068.80
2023-04-27T22:29:01.128Z,99072.52
2023-04-27T22:39:04.250Z,99070.70
2023-04-27T22:49:07.831Z,99065.77
2023-04-27T22:59:11.845Z,99059.37
2023-04-27T23:09:16.112Z,99058.09
2023-04-27T23:19:23.536Z,99063.80
2023-04-27T23:29:27.365Z,99060.63
2023-04-27T23:39:31.201Z,99061.92
2023-04-27T23:49:34.493Z,99056.19
2023-04-27T23:59:41.530Z,99054.09
